sensor_id;sensor_type;location;lat;lon;timestamp;P1;durP1;ratioP1;P2;durP2;ratioP2
29848;SDS011;16728;50.832;5.590;2023-05-29T00:02:53;10.35;;;4.30;;
29848;SDS011;16728;50.832;5.590;2023-05-29T00:05:55;7.68;;;3.75;;
29848;SDS011;16728;50.832;5.590;2023-05-29T00:08:57;10.02;;;3.78;;
29848;SDS011;16728;50.832;5.590;2023-05-29T00:12:05;8.38;;;4.00;;
29848;SDS011;16728;50.832;5.590;2023-05-29T00:15:08;10.13;;;4.15;;
29848;SDS011;16728;50.832;5.590;2023-05-29T00:18:14;11.75;;;4.78;;
29848;SDS011;16728;50.832;5.590;2023-05-29T00:21:19;9.88;;;3.63;;
29848;SDS011;16728;50.832;5.590;2023-05-29T00:24:21;7.47;;;4.38;;
29848;SDS011;16728;50.832;5.590;2023-05-29T00:27:23;6.80;;;4.32;;
29848;SDS011;16728;50.832;5.590;2023-05-29T00:30:25;8.05;;;4.32;;
29848;SDS011;16728;50.832;5.590;2023-05-29T00:33:27;7.40;;;4.20;;
29848;SDS011;16728;50.832;5.590;2023-05-29T00:36:29;6.57;;;4.35;;
29848;SDS011;16728;50.832;5.590;2023-05-29T00:39:32;7.65;;;4.00;;
29848;SDS011;16728;50.832;5.590;2023-05-29T00:42:34;9.30;;;4.72;;
29848;SDS011;16728;50.832;5.590;2023-05-29T00:45:36;9.43;;;4.55;;
29848;SDS011;16728;50.832;5.590;2023-05-29T00:48:40;10.63;;;4.82;;
29848;SDS011;16728;50.832;5.590;2023-05-29T00:51:43;11.07;;;5.05;;
29848;SDS011;16728;50.832;5.590;2023-05-29T00:54:45;8.73;;;4.70;;
29848;SDS011;16728;50.832;5.590;2023-05-29T00:57:48;9.90;;;4.82;;
29848;SDS011;16728;50.832;5.590;2023-05-29T01:00:52;9.48;;;4.97;;
29848;SDS011;16728;50.832;5.590;2023-05-29T01:03:55;9.35;;;4.88;;
29848;SDS011;16728;50.832;5.590;2023-05-29T01:07:00;11.00;;;5.35;;
29848;SDS011;16728;50.832;5.590;2023-05-29T01:10:06;8.00;;;4.75;;
29848;SDS011;16728;50.832;5.590;2023-05-29T01:16:21;13.00;;;5.40;;
29848;SDS011;16728;50.832;5.590;2023-05-29T01:20:21;8.45;;;5.38;;
29848;SDS011;16728;50.832;5.590;2023-05-29T01:29:57;7.95;;;5.10;;
29848;SDS011;16728;50.832;5.590;2023-05-29T01:33:00;9.25;;;5.35;;
29848;SDS011;16728;50.832;5.590;2023-05-29T01:36:02;9.23;;;6.00;;
29848;SDS011;16728;50.832;5.590;2023-05-29T01:39:08;13.00;;;5.97;;
29848;SDS011;16728;50.832;5.590;2023-05-29T01:42:11;10.55;;;6.25;;
29848;SDS011;16728;50.832;5.590;2023-05-29T01:45:14;11.30;;;5.93;;
29848;SDS011;16728;50.832;5.590;2023-05-29T01:48:16;9.73;;;6.28;;
29848;SDS011;16728;50.832;5.590;2023-05-29T01:51:24;12.77;;;5.50;;
29848;SDS011;16728;50.832;5.590;2023-05-29T01:54:26;15.73;;;6.22;;
29848;SDS011;16728;50.832;5.590;2023-05-29T01:57:28;11.85;;;6.18;;
29848;SDS011;16728;50.832;5.590;2023-05-29T02:00:30;9.63;;;5.70;;
29848;SDS011;16728;50.832;5.590;2023-05-29T02:03:33;8.90;;;5.88;;
29848;SDS011;16728;50.832;5.590;2023-05-29T02:06:36;11.10;;;6.43;;
29848;SDS011;16728;50.832;5.590;2023-05-29T02:09:38;14.95;;;7.05;;
29848;SDS011;16728;50.832;5.590;2023-05-29T02:12:41;11.60;;;6.50;;
29848;SDS011;16728;50.832;5.590;2023-05-29T02:15:43;9.18;;;7.07;;
29848;SDS011;16728;50.832;5.590;2023-05-29T02:18:47;11.83;;;7.13;;
29848;SDS011;16728;50.832;5.590;2023-05-29T02:21:53;11.40;;;6.68;;
29848;SDS011;16728;50.832;5.590;2023-05-29T02:24:56;11.63;;;6.60;;
29848;SDS011;16728;50.832;5.590;2023-05-29T02:27:58;11.85;;;7.72;;
29848;SDS011;16728;50.832;5.590;2023-05-29T02:31:01;13.07;;;7.35;;
29848;SDS011;16728;50.832;5.590;2023-05-29T02:34:06;10.02;;;6.68;;
29848;SDS011;16728;50.832;5.590;2023-05-29T02:37:08;14.77;;;7.63;;
29848;SDS011;16728;50.832;5.590;2023-05-29T02:43:13;13.38;;;7.53;;
29848;SDS011;16728;50.832;5.590;2023-05-29T02:46:15;12.00;;;6.80;;
29848;SDS011;16728;50.832;5.590;2023-05-29T02:49:17;12.90;;;7.22;;
29848;SDS011;16728;50.832;5.590;2023-05-29T02:52:19;13.25;;;6.93;;
29848;SDS011;16728;50.832;5.590;2023-05-29T02:55:21;12.45;;;6.85;;
29848;SDS011;16728;50.832;5.590;2023-05-29T02:58:31;13.95;;;6.88;;
29848;SDS011;16728;50.832;5.590;2023-05-29T03:01:34;13.45;;;5.93;;
29848;SDS011;16728;50.832;5.590;2023-05-29T03:04:36;11.50;;;6.00;;
29848;SDS011;16728;50.832;5.590;2023-05-29T03:07:38;10.85;;;5.72;;
29848;SDS011;16728;50.832;5.590;2023-05-29T03:10:41;11.40;;;5.90;;
29848;SDS011;16728;50.832;5.590;2023-05-29T03:16:48;10.77;;;5.60;;
29848;SDS011;16728;50.832;5.590;2023-05-29T03:19:50;9.73;;;6.05;;
29848;SDS011;16728;50.832;5.590;2023-05-29T03:22:54;13.10;;;5.47;;
29848;SDS011;16728;50.832;5.590;2023-05-29T03:25:56;14.52;;;6.68;;
29848;SDS011;16728;50.832;5.590;2023-05-29T03:28:58;13.57;;;5.53;;
29848;SDS011;16728;50.832;5.590;2023-05-29T03:32:00;12.57;;;5.65;;
29848;SDS011;16728;50.832;5.590;2023-05-29T03:35:02;14.05;;;5.40;;
29848;SDS011;16728;50.832;5.590;2023-05-29T03:38:05;11.65;;;4.97;;
29848;SDS011;16728;50.832;5.590;2023-05-29T03:41:07;12.82;;;4.93;;
29848;SDS011;16728;50.832;5.590;2023-05-29T03:44:09;13.23;;;4.90;;
29848;SDS011;16728;50.832;5.590;2023-05-29T03:47:11;13.80;;;5.03;;
29848;SDS011;16728;50.832;5.590;2023-05-29T03:50:13;13.43;;;4.70;;
29848;SDS011;16728;50.832;5.590;2023-05-29T03:53:17;10.00;;;4.55;;
29848;SDS011;16728;50.832;5.590;2023-05-29T03:56:19;14.55;;;4.60;;
29848;SDS011;16728;50.832;5.590;2023-05-29T03:59:22;11.98;;;4.82;;
29848;SDS011;16728;50.832;5.590;2023-05-29T04:02:24;11.00;;;3.60;;
29848;SDS011;16728;50.832;5.590;2023-05-29T04:05:31;11.07;;;4.38;;
29848;SDS011;16728;50.832;5.590;2023-05-29T04:08:33;13.68;;;4.13;;
29848;SDS011;16728;50.832;5.590;2023-05-29T04:11:36;14.10;;;4.20;;
29848;SDS011;16728;50.832;5.590;2023-05-29T04:14:40;14.65;;;4.45;;
29848;SDS011;16728;50.832;5.590;2023-05-29T04:17:42;12.65;;;4.40;;
29848;SDS011;16728;50.832;5.590;2023-05-29T04:20:44;13.82;;;4.38;;
29848;SDS011;16728;50.832;5.590;2023-05-29T04:23:54;11.23;;;4.10;;
29848;SDS011;16728;50.832;5.590;2023-05-29T04:26:56;13.57;;;4.20;;
29848;SDS011;16728;50.832;5.590;2023-05-29T04:30:01;11.02;;;4.10;;
29848;SDS011;16728;50.832;5.590;2023-05-29T04:33:07;10.23;;;4.30;;
29848;SDS011;16728;50.832;5.590;2023-05-29T04:36:12;12.38;;;3.97;;
29848;SDS011;16728;50.832;5.590;2023-05-29T04:39:14;11.93;;;4.15;;
29848;SDS011;16728;50.832;5.590;2023-05-29T04:42:16;13.57;;;3.80;;
29848;SDS011;16728;50.832;5.590;2023-05-29T04:45:21;8.88;;;4.00;;
29848;SDS011;16728;50.832;5.590;2023-05-29T04:48:28;12.02;;;3.75;;
29848;SDS011;16728;50.832;5.590;2023-05-29T04:51:30;9.32;;;3.13;;
29848;SDS011;16728;50.832;5.590;2023-05-29T04:54:33;15.40;;;4.13;;
29848;SDS011;16728;50.832;5.590;2023-05-29T05:00:39;14.35;;;3.63;;
29848;SDS011;16728;50.832;5.590;2023-05-29T05:03:41;15.25;;;3.78;;
29848;SDS011;16728;50.832;5.590;2023-05-29T05:06:44;14.88;;;3.63;;
29848;SDS011;16728;50.832;5.590;2023-05-29T05:09:46;11.77;;;3.78;;
29848;SDS011;16728;50.832;5.590;2023-05-29T05:12:49;12.30;;;3.80;;
29848;SDS011;16728;50.832;5.590;2023-05-29T05:15:51;13.68;;;3.70;;
29848;SDS011;16728;50.832;5.590;2023-05-29T05:18:55;13.73;;;4.18;;
29848;SDS011;16728;50.832;5.590;2023-05-29T05:21:57;12.80;;;3.22;;
29848;SDS011;16728;50.832;5.590;2023-05-29T05:25:00;11.47;;;3.50;;
29848;SDS011;16728;50.832;5.590;2023-05-29T05:28:02;19.70;;;4.40;;
29848;SDS011;16728;50.832;5.590;2023-05-29T05:31:06;15.25;;;4.25;;
29848;SDS011;16728;50.832;5.590;2023-05-29T05:34:09;11.90;;;3.40;;
29848;SDS011;16728;50.832;5.590;2023-05-29T05:37:11;13.95;;;3.70;;
29848;SDS011;16728;50.832;5.590;2023-05-29T05:40:13;13.45;;;3.30;;
29848;SDS011;16728;50.832;5.590;2023-05-29T05:43:16;12.93;;;4.15;;
29848;SDS011;16728;50.832;5.590;2023-05-29T05:46:18;14.15;;;3.92;;
29848;SDS011;16728;50.832;5.590;2023-05-29T05:49:20;13.45;;;3.67;;
29848;SDS011;16728;50.832;5.590;2023-05-29T05:52:23;12.30;;;3.65;;
29848;SDS011;16728;50.832;5.590;2023-05-29T05:55:28;14.38;;;3.60;;
29848;SDS011;16728;50.832;5.590;2023-05-29T05:58:30;12.98;;;3.92;;
29848;SDS011;16728;50.832;5.590;2023-05-29T06:01:32;11.15;;;3.60;;
29848;SDS011;16728;50.832;5.590;2023-05-29T06:04:34;15.32;;;3.13;;
29848;SDS011;16728;50.832;5.590;2023-05-29T06:07:37;17.23;;;4.05;;
29848;SDS011;16728;50.832;5.590;2023-05-29T06:10:39;13.90;;;4.00;;
29848;SDS011;16728;50.832;5.590;2023-05-29T06:13:42;13.83;;;3.60;;
29848;SDS011;16728;50.832;5.590;2023-05-29T06:16:44;11.43;;;3.47;;
29848;SDS011;16728;50.832;5.590;2023-05-29T06:19:46;16.25;;;3.88;;
29848;SDS011;16728;50.832;5.590;2023-05-29T06:22:48;16.48;;;4.03;;
29848;SDS011;16728;50.832;5.590;2023-05-29T06:25:56;16.65;;;4.28;;
29848;SDS011;16728;50.832;5.590;2023-05-29T06:28:58;14.85;;;3.58;;
29848;SDS011;16728;50.832;5.590;2023-05-29T06:32:00;17.77;;;4.65;;
29848;SDS011;16728;50.832;5.590;2023-05-29T06:35:02;13.80;;;3.45;;
29848;SDS011;16728;50.832;5.590;2023-05-29T06:38:10;12.70;;;3.92;;
29848;SDS011;16728;50.832;5.590;2023-05-29T06:41:12;20.30;;;4.80;;
29848;SDS011;16728;50.832;5.590;2023-05-29T06:44:13;14.45;;;5.03;;
29848;SDS011;16728;50.832;5.590;2023-05-29T06:47:15;12.90;;;4.07;;
29848;SDS011;16728;50.832;5.590;2023-05-29T06:50:17;15.07;;;3.80;;
29848;SDS011;16728;50.832;5.590;2023-05-29T06:53:19;17.35;;;4.22;;
29848;SDS011;16728;50.832;5.590;2023-05-29T06:56:21;14.60;;;4.00;;
29848;SDS011;16728;50.832;5.590;2023-05-29T06:59:23;15.40;;;4.22;;
29848;SDS011;16728;50.832;5.590;2023-05-29T07:02:26;12.65;;;3.70;;
29848;SDS011;16728;50.832;5.590;2023-05-29T07:05:28;15.38;;;3.70;;
29848;SDS011;16728;50.832;5.590;2023-05-29T07:08:30;16.80;;;4.40;;
29848;SDS011;16728;50.832;5.590;2023-05-29T07:11:32;16.42;;;4.13;;
29848;SDS011;16728;50.832;5.590;2023-05-29T07:14:33;13.77;;;4.03;;
29848;SDS011;16728;50.832;5.590;2023-05-29T07:17:35;12.82;;;4.10;;
29848;SDS011;16728;50.832;5.590;2023-05-29T07:20:40;13.13;;;4.22;;
29848;SDS011;16728;50.832;5.590;2023-05-29T07:26:44;14.93;;;3.55;;
29848;SDS011;16728;50.832;5.590;2023-05-29T07:29:46;17.95;;;4.28;;
29848;SDS011;16728;50.832;5.590;2023-05-29T07:32:48;16.33;;;4.00;;
29848;SDS011;16728;50.832;5.590;2023-05-29T07:35:50;15.63;;;4.22;;
29848;SDS011;16728;50.832;5.590;2023-05-29T07:38:52;15.80;;;4.40;;
29848;SDS011;16728;50.832;5.590;2023-05-29T07:41:55;13.70;;;3.80;;
29848;SDS011;16728;50.832;5.590;2023-05-29T07:45:02;14.55;;;4.20;;
29848;SDS011;16728;50.832;5.590;2023-05-29T07:48:04;12.23;;;4.25;;
29848;SDS011;16728;50.832;5.590;2023-05-29T07:51:08;10.75;;;3.80;;
29848;SDS011;16728;50.832;5.590;2023-05-29T07:57:13;11.55;;;3.40;;
29848;SDS011;16728;50.832;5.590;2023-05-29T08:00:15;11.90;;;3.67;;
29848;SDS011;16728;50.832;5.590;2023-05-29T08:03:17;14.35;;;3.95;;
29848;SDS011;16728;50.832;5.590;2023-05-29T08:06:20;16.02;;;4.07;;
29848;SDS011;16728;50.832;5.590;2023-05-29T08:09:23;17.25;;;4.40;;
29848;SDS011;16728;50.832;5.590;2023-05-29T08:12:24;18.08;;;4.03;;
29848;SDS011;16728;50.832;5.590;2023-05-29T08:15:27;12.57;;;4.30;;
29848;SDS011;16728;50.832;5.590;2023-05-29T08:18:30;17.05;;;4.07;;
29848;SDS011;16728;50.832;5.590;2023-05-29T08:21:44;14.35;;;3.75;;
29848;SDS011;16728;50.832;5.590;2023-05-29T08:24:46;12.93;;;3.60;;
29848;SDS011;16728;50.832;5.590;2023-05-29T08:27:48;12.15;;;3.45;;
29848;SDS011;16728;50.832;5.590;2023-05-29T08:30:49;17.70;;;3.67;;
29848;SDS011;16728;50.832;5.590;2023-05-29T08:33:53;14.90;;;4.00;;
29848;SDS011;16728;50.832;5.590;2023-05-29T08:36:56;12.53;;;3.60;;
29848;SDS011;16728;50.832;5.590;2023-05-29T08:39:59;15.25;;;4.20;;
29848;SDS011;16728;50.832;5.590;2023-05-29T08:43:13;14.98;;;3.47;;
29848;SDS011;16728;50.832;5.590;2023-05-29T08:46:17;13.02;;;3.92;;
29848;SDS011;16728;50.832;5.590;2023-05-29T08:49:21;15.70;;;4.18;;
29848;SDS011;16728;50.832;5.590;2023-05-29T08:52:24;16.95;;;4.22;;
29848;SDS011;16728;50.832;5.590;2023-05-29T08:55:28;13.32;;;3.60;;
29848;SDS011;16728;50.832;5.590;2023-05-29T08:58:30;14.70;;;4.03;;
29848;SDS011;16728;50.832;5.590;2023-05-29T09:01:33;13.65;;;3.60;;
29848;SDS011;16728;50.832;5.590;2023-05-29T09:04:41;16.60;;;3.67;;
29848;SDS011;16728;50.832;5.590;2023-05-29T09:07:46;17.42;;;4.25;;
29848;SDS011;16728;50.832;5.590;2023-05-29T09:10:51;12.85;;;3.55;;
29848;SDS011;16728;50.832;5.590;2023-05-29T09:13:53;19.73;;;4.18;;
29848;SDS011;16728;50.832;5.590;2023-05-29T09:16:58;15.68;;;4.18;;
29848;SDS011;16728;50.832;5.590;2023-05-29T09:20:00;10.57;;;3.17;;
29848;SDS011;16728;50.832;5.590;2023-05-29T09:23:08;14.05;;;3.30;;
29848;SDS011;16728;50.832;5.590;2023-05-29T09:26:11;12.63;;;3.40;;
29848;SDS011;16728;50.832;5.590;2023-05-29T09:29:15;21.52;;;4.53;;
29848;SDS011;16728;50.832;5.590;2023-05-29T09:32:18;16.38;;;3.97;;
29848;SDS011;16728;50.832;5.590;2023-05-29T09:35:21;13.95;;;4.50;;
29848;SDS011;16728;50.832;5.590;2023-05-29T09:38:23;11.43;;;3.65;;
29848;SDS011;16728;50.832;5.590;2023-05-29T09:41:46;11.57;;;3.77;;
29848;SDS011;16728;50.832;5.590;2023-05-29T09:44:49;14.40;;;3.80;;
29848;SDS011;16728;50.832;5.590;2023-05-29T09:47:55;11.88;;;3.83;;
29848;SDS011;16728;50.832;5.590;2023-05-29T09:50:56;14.73;;;4.13;;
29848;SDS011;16728;50.832;5.590;2023-05-29T09:54:00;11.85;;;4.07;;
29848;SDS011;16728;50.832;5.590;2023-05-29T09:57:17;12.68;;;3.70;;
29848;SDS011;16728;50.832;5.590;2023-05-29T10:00:19;12.32;;;3.88;;
29848;SDS011;16728;50.832;5.590;2023-05-29T10:03:22;12.45;;;4.05;;
29848;SDS011;16728;50.832;5.590;2023-05-29T10:06:26;13.55;;;4.15;;
29848;SDS011;16728;50.832;5.590;2023-05-29T10:09:30;13.77;;;3.70;;
29848;SDS011;16728;50.832;5.590;2023-05-29T10:12:36;11.23;;;4.18;;
29848;SDS011;16728;50.832;5.590;2023-05-29T10:15:44;14.07;;;4.22;;
29848;SDS011;16728;50.832;5.590;2023-05-29T10:18:54;13.27;;;4.35;;
29848;SDS011;16728;50.832;5.590;2023-05-29T10:21:57;15.77;;;4.15;;
29848;SDS011;16728;50.832;5.590;2023-05-29T10:25:02;14.13;;;3.70;;
29848;SDS011;16728;50.832;5.590;2023-05-29T10:28:05;14.20;;;3.75;;
29848;SDS011;16728;50.832;5.590;2023-05-29T10:31:09;13.30;;;4.03;;
29848;SDS011;16728;50.832;5.590;2023-05-29T10:37:51;15.38;;;3.83;;
29848;SDS011;16728;50.832;5.590;2023-05-29T10:47:32;19.42;;;4.13;;
29848;SDS011;16728;50.832;5.590;2023-05-29T10:50:37;15.23;;;4.15;;
29848;SDS011;16728;50.832;5.590;2023-05-29T10:53:47;14.18;;;4.18;;
29848;SDS011;16728;50.832;5.590;2023-05-29T10:56:53;11.30;;;3.22;;
29848;SDS011;16728;50.832;5.590;2023-05-29T11:00:04;12.68;;;3.85;;
29848;SDS011;16728;50.832;5.590;2023-05-29T11:03:08;12.70;;;3.63;;
29848;SDS011;16728;50.832;5.590;2023-05-29T11:06:18;17.00;;;3.20;;
29848;SDS011;16728;50.832;5.590;2023-05-29T11:09:30;14.48;;;3.22;;
29848;SDS011;16728;50.832;5.590;2023-05-29T11:12:32;13.90;;;4.05;;
29848;SDS011;16728;50.832;5.590;2023-05-29T11:15:37;16.85;;;4.07;;
29848;SDS011;16728;50.832;5.590;2023-05-29T11:18:40;12.82;;;3.38;;
29848;SDS011;16728;50.832;5.590;2023-05-29T11:21:49;14.30;;;3.75;;
29848;SDS011;16728;50.832;5.590;2023-05-29T11:25:06;14.13;;;3.83;;
29848;SDS011;16728;50.832;5.590;2023-05-29T11:28:09;15.65;;;3.65;;
29848;SDS011;16728;50.832;5.590;2023-05-29T11:31:12;11.38;;;3.40;;
29848;SDS011;16728;50.832;5.590;2023-05-29T11:34:16;13.10;;;3.70;;
29848;SDS011;16728;50.832;5.590;2023-05-29T11:37:18;13.98;;;3.60;;
29848;SDS011;16728;50.832;5.590;2023-05-29T11:40:20;9.95;;;3.83;;
29848;SDS011;16728;50.832;5.590;2023-05-29T11:43:22;10.55;;;3.40;;
29848;SDS011;16728;50.832;5.590;2023-05-29T11:49:29;11.68;;;3.15;;
29848;SDS011;16728;50.832;5.590;2023-05-29T11:52:34;13.00;;;3.45;;
29848;SDS011;16728;50.832;5.590;2023-05-29T11:55:36;19.43;;;3.50;;
29848;SDS011;16728;50.832;5.590;2023-05-29T11:58:43;14.30;;;2.90;;
29848;SDS011;16728;50.832;5.590;2023-05-29T12:01:46;9.82;;;2.70;;
29848;SDS011;16728;50.832;5.590;2023-05-29T12:05:05;7.90;;;2.95;;
29848;SDS011;16728;50.832;5.590;2023-05-29T12:08:10;11.57;;;3.30;;
29848;SDS011;16728;50.832;5.590;2023-05-29T12:11:23;12.07;;;3.30;;
29848;SDS011;16728;50.832;5.590;2023-05-29T12:14:25;10.02;;;3.13;;
29848;SDS011;16728;50.832;5.590;2023-05-29T12:17:29;8.77;;;3.10;;
29848;SDS011;16728;50.832;5.590;2023-05-29T12:20:32;15.20;;;3.70;;
29848;SDS011;16728;50.832;5.590;2023-05-29T12:23:37;13.13;;;3.15;;
29848;SDS011;16728;50.832;5.590;2023-05-29T12:29:43;13.18;;;3.30;;
29848;SDS011;16728;50.832;5.590;2023-05-29T12:32:46;12.68;;;3.17;;
29848;SDS011;16728;50.832;5.590;2023-05-29T12:35:50;12.07;;;3.55;;
29848;SDS011;16728;50.832;5.590;2023-05-29T12:38:53;11.20;;;3.60;;
29848;SDS011;16728;50.832;5.590;2023-05-29T12:41:55;8.98;;;3.03;;
29848;SDS011;16728;50.832;5.590;2023-05-29T12:44:58;9.32;;;3.10;;
29848;SDS011;16728;50.832;5.590;2023-05-29T12:48:10;9.38;;;3.47;;
29848;SDS011;16728;50.832;5.590;2023-05-29T12:51:12;9.97;;;2.97;;
29848;SDS011;16728;50.832;5.590;2023-05-29T12:54:15;10.32;;;2.72;;
29848;SDS011;16728;50.832;5.590;2023-05-29T12:57:18;10.95;;;3.03;;
29848;SDS011;16728;50.832;5.590;2023-05-29T13:00:24;11.23;;;2.50;;
29848;SDS011;16728;50.832;5.590;2023-05-29T13:03:27;11.32;;;3.17;;
29848;SDS011;16728;50.832;5.590;2023-05-29T13:06:29;15.30;;;2.83;;
29848;SDS011;16728;50.832;5.590;2023-05-29T13:09:31;15.27;;;3.05;;
29848;SDS011;16728;50.832;5.590;2023-05-29T13:12:34;9.90;;;3.25;;
29848;SDS011;16728;50.832;5.590;2023-05-29T13:15:36;9.63;;;2.97;;
29848;SDS011;16728;50.832;5.590;2023-05-29T13:18:47;10.15;;;2.72;;
29848;SDS011;16728;50.832;5.590;2023-05-29T13:21:49;11.50;;;3.33;;
29848;SDS011;16728;50.832;5.590;2023-05-29T13:24:51;10.48;;;3.42;;
29848;SDS011;16728;50.832;5.590;2023-05-29T13:27:53;6.93;;;2.80;;
29848;SDS011;16728;50.832;5.590;2023-05-29T13:30:56;9.82;;;3.00;;
29848;SDS011;16728;50.832;5.590;2023-05-29T13:33:57;11.43;;;3.22;;
29848;SDS011;16728;50.832;5.590;2023-05-29T13:36:59;9.35;;;2.90;;
29848;SDS011;16728;50.832;5.590;2023-05-29T13:40:03;9.50;;;3.17;;
29848;SDS011;16728;50.832;5.590;2023-05-29T13:43:06;9.27;;;3.05;;
29848;SDS011;16728;50.832;5.590;2023-05-29T13:46:08;8.30;;;3.53;;
29848;SDS011;16728;50.832;5.590;2023-05-29T13:49:10;9.57;;;3.10;;
29848;SDS011;16728;50.832;5.590;2023-05-29T13:52:12;10.10;;;3.40;;
29848;SDS011;16728;50.832;5.590;2023-05-29T13:55:14;8.98;;;3.42;;
29848;SDS011;16728;50.832;5.590;2023-05-29T13:58:16;10.10;;;3.25;;
29848;SDS011;16728;50.832;5.590;2023-05-29T14:01:19;10.52;;;3.35;;
29848;SDS011;16728;50.832;5.590;2023-05-29T14:04:22;10.97;;;3.63;;
29848;SDS011;16728;50.832;5.590;2023-05-29T14:10:27;8.73;;;3.13;;
29848;SDS011;16728;50.832;5.590;2023-05-29T14:13:29;7.07;;;3.08;;
29848;SDS011;16728;50.832;5.590;2023-05-29T14:16:31;8.00;;;2.92;;
29848;SDS011;16728;50.832;5.590;2023-05-29T14:19:36;12.20;;;3.28;;
29848;SDS011;16728;50.832;5.590;2023-05-29T14:22:38;9.20;;;2.93;;
29848;SDS011;16728;50.832;5.590;2023-05-29T14:25:41;10.50;;;3.10;;
29848;SDS011;16728;50.832;5.590;2023-05-29T14:28:43;8.55;;;2.80;;
29848;SDS011;16728;50.832;5.590;2023-05-29T14:31:47;11.00;;;3.20;;
29848;SDS011;16728;50.832;5.590;2023-05-29T14:34:49;9.55;;;3.17;;
29848;SDS011;16728;50.832;5.590;2023-05-29T14:38:00;9.80;;;3.00;;
29848;SDS011;16728;50.832;5.590;2023-05-29T14:41:05;10.63;;;2.90;;
29848;SDS011;16728;50.832;5.590;2023-05-29T14:44:10;11.15;;;2.92;;
29848;SDS011;16728;50.832;5.590;2023-05-29T14:47:13;13.20;;;3.00;;
29848;SDS011;16728;50.832;5.590;2023-05-29T14:50:15;11.68;;;3.20;;
29848;SDS011;16728;50.832;5.590;2023-05-29T14:53:17;14.57;;;3.30;;
29848;SDS011;16728;50.832;5.590;2023-05-29T14:56:21;7.32;;;2.55;;
29848;SDS011;16728;50.832;5.590;2023-05-29T14:59:23;7.90;;;2.95;;
29848;SDS011;16728;50.832;5.590;2023-05-29T15:05:29;12.00;;;3.13;;
29848;SDS011;16728;50.832;5.590;2023-05-29T15:08:32;5.75;;;2.45;;
29848;SDS011;16728;50.832;5.590;2023-05-29T15:11:35;6.72;;;2.53;;
29848;SDS011;16728;50.832;5.590;2023-05-29T15:14:37;7.82;;;2.88;;
29848;SDS011;16728;50.832;5.590;2023-05-29T15:17:39;8.02;;;2.58;;
29848;SDS011;16728;50.832;5.590;2023-05-29T15:23:45;10.00;;;3.55;;
29848;SDS011;16728;50.832;5.590;2023-05-29T15:26:47;9.68;;;3.42;;
29848;SDS011;16728;50.832;5.590;2023-05-29T15:29:49;7.60;;;3.05;;
29848;SDS011;16728;50.832;5.590;2023-05-29T15:32:51;9.20;;;3.15;;
29848;SDS011;16728;50.832;5.590;2023-05-29T15:35:53;9.60;;;3.15;;
29848;SDS011;16728;50.832;5.590;2023-05-29T15:38:55;7.97;;;2.80;;
29848;SDS011;16728;50.832;5.590;2023-05-29T15:41:57;7.95;;;2.70;;
29848;SDS011;16728;50.832;5.590;2023-05-29T15:45:04;11.00;;;2.88;;
29848;SDS011;16728;50.832;5.590;2023-05-29T15:48:06;9.63;;;2.95;;
29848;SDS011;16728;50.832;5.590;2023-05-29T15:51:13;9.05;;;3.13;;
29848;SDS011;16728;50.832;5.590;2023-05-29T15:54:15;15.00;;;2.88;;
29848;SDS011;16728;50.832;5.590;2023-05-29T15:57:17;6.70;;;2.75;;
29848;SDS011;16728;50.832;5.590;2023-05-29T16:00:19;10.50;;;2.97;;
29848;SDS011;16728;50.832;5.590;2023-05-29T16:03:21;10.65;;;3.15;;
29848;SDS011;16728;50.832;5.590;2023-05-29T16:06:23;11.38;;;2.95;;
29848;SDS011;16728;50.832;5.590;2023-05-29T16:09:26;10.63;;;3.22;;
29848;SDS011;16728;50.832;5.590;2023-05-29T16:12:29;5.53;;;2.70;;
29848;SDS011;16728;50.832;5.590;2023-05-29T16:15:32;7.72;;;2.75;;
29848;SDS011;16728;50.832;5.590;2023-05-29T16:18:34;8.77;;;2.88;;
29848;SDS011;16728;50.832;5.590;2023-05-29T16:21:36;12.48;;;3.42;;
29848;SDS011;16728;50.832;5.590;2023-05-29T16:24:38;9.23;;;2.75;;
29848;SDS011;16728;50.832;5.590;2023-05-29T16:27:40;7.75;;;2.88;;
29848;SDS011;16728;50.832;5.590;2023-05-29T16:30:42;7.25;;;2.90;;
29848;SDS011;16728;50.832;5.590;2023-05-29T16:33:44;11.02;;;2.92;;
29848;SDS011;16728;50.832;5.590;2023-05-29T16:36:47;8.90;;;2.60;;
29848;SDS011;16728;50.832;5.590;2023-05-29T16:39:49;7.85;;;3.13;;
29848;SDS011;16728;50.832;5.590;2023-05-29T16:42:50;9.20;;;2.78;;
29848;SDS011;16728;50.832;5.590;2023-05-29T16:45:53;9.17;;;2.70;;
29848;SDS011;16728;50.832;5.590;2023-05-29T16:48:56;9.43;;;3.15;;
29848;SDS011;16728;50.832;5.590;2023-05-29T16:51:58;13.10;;;3.17;;
29848;SDS011;16728;50.832;5.590;2023-05-29T16:55:01;11.75;;;3.25;;
29848;SDS011;16728;50.832;5.590;2023-05-29T16:58:03;6.63;;;2.47;;
29848;SDS011;16728;50.832;5.590;2023-05-29T17:01:05;9.45;;;3.45;;
29848;SDS011;16728;50.832;5.590;2023-05-29T17:04:08;11.40;;;2.90;;
29848;SDS011;16728;50.832;5.590;2023-05-29T17:07:11;12.73;;;3.47;;
29848;SDS011;16728;50.832;5.590;2023-05-29T17:10:14;10.95;;;2.90;;
29848;SDS011;16728;50.832;5.590;2023-05-29T17:13:18;13.68;;;2.97;;
29848;SDS011;16728;50.832;5.590;2023-05-29T17:16:20;10.07;;;2.95;;
29848;SDS011;16728;50.832;5.590;2023-05-29T17:19:25;9.00;;;2.92;;
29848;SDS011;16728;50.832;5.590;2023-05-29T17:22:27;11.88;;;3.05;;
29848;SDS011;16728;50.832;5.590;2023-05-29T17:25:29;15.88;;;3.03;;
29848;SDS011;16728;50.832;5.590;2023-05-29T17:28:31;9.45;;;2.80;;
29848;SDS011;16728;50.832;5.590;2023-05-29T17:31:33;9.45;;;3.00;;
29848;SDS011;16728;50.832;5.590;2023-05-29T17:34:37;9.23;;;3.08;;
29848;SDS011;16728;50.832;5.590;2023-05-29T17:37:40;9.00;;;3.15;;
29848;SDS011;16728;50.832;5.590;2023-05-29T17:40:42;8.73;;;3.00;;
29848;SDS011;16728;50.832;5.590;2023-05-29T17:43:45;8.10;;;3.37;;
29848;SDS011;16728;50.832;5.590;2023-05-29T17:46:47;14.23;;;4.32;;
29848;SDS011;16728;50.832;5.590;2023-05-29T17:49:49;10.02;;;2.90;;
29848;SDS011;16728;50.832;5.590;2023-05-29T17:52:52;7.72;;;2.67;;
29848;SDS011;16728;50.832;5.590;2023-05-29T17:55:54;5.65;;;2.30;;
29848;SDS011;16728;50.832;5.590;2023-05-29T17:59:01;9.77;;;2.92;;
29848;SDS011;16728;50.832;5.590;2023-05-29T18:02:03;14.23;;;2.92;;
29848;SDS011;16728;50.832;5.590;2023-05-29T18:05:05;13.48;;;2.75;;
29848;SDS011;16728;50.832;5.590;2023-05-29T18:08:07;12.15;;;3.25;;
29848;SDS011;16728;50.832;5.590;2023-05-29T18:11:09;7.00;;;2.60;;
29848;SDS011;16728;50.832;5.590;2023-05-29T18:14:11;9.93;;;2.97;;
29848;SDS011;16728;50.832;5.590;2023-05-29T18:17:14;13.95;;;2.90;;
29848;SDS011;16728;50.832;5.590;2023-05-29T18:20:24;8.63;;;2.80;;
29848;SDS011;16728;50.832;5.590;2023-05-29T18:23:30;9.95;;;2.85;;
29848;SDS011;16728;50.832;5.590;2023-05-29T18:26:32;8.05;;;2.70;;
29848;SDS011;16728;50.832;5.590;2023-05-29T18:29:34;12.73;;;3.50;;
29848;SDS011;16728;50.832;5.590;2023-05-29T18:32:36;7.88;;;2.80;;
29848;SDS011;16728;50.832;5.590;2023-05-29T18:35:40;12.93;;;2.83;;
29848;SDS011;16728;50.832;5.590;2023-05-29T18:38:42;10.13;;;3.00;;
29848;SDS011;16728;50.832;5.590;2023-05-29T18:41:44;11.32;;;2.53;;
29848;SDS011;16728;50.832;5.590;2023-05-29T18:44:46;8.10;;;2.60;;
29848;SDS011;16728;50.832;5.590;2023-05-29T18:47:52;8.63;;;2.72;;
29848;SDS011;16728;50.832;5.590;2023-05-29T18:50:54;12.32;;;3.20;;
29848;SDS011;16728;50.832;5.590;2023-05-29T18:53:57;8.65;;;2.95;;
29848;SDS011;16728;50.832;5.590;2023-05-29T18:56:59;9.33;;;2.73;;
29848;SDS011;16728;50.832;5.590;2023-05-29T19:00:03;6.82;;;2.13;;
29848;SDS011;16728;50.832;5.590;2023-05-29T19:03:06;10.20;;;2.90;;
29848;SDS011;16728;50.832;5.590;2023-05-29T19:06:10;9.35;;;3.17;;